createdAt,value
2022-10-02T00:00:13.457Z,11.88
2022-10-02T00:01:13.353Z,11.86
2022-10-02T00:02:13.326Z,11.86
2022-10-02T00:03:13.290Z,11.88
2022-10-02T00:04:13.354Z,11.91
2022-10-02T00:05:13.261Z,11.95
2022-10-02T00:06:13.266Z,11.94
2022-10-02T00:07:13.245Z,11.95
2022-10-02T00:08:13.233Z,11.94
2022-10-02T00:09:13.224Z,11.94
2022-10-02T00:10:13.221Z,11.94
2022-10-02T00:11:13.239Z,11.91
2022-10-02T00:12:13.220Z,11.94
2022-10-02T00:13:13.200Z,11.95
2022-10-02T00:14:13.193Z,11.98
2022-10-02T00:15:13.165Z,11.98
2022-10-02T00:16:13.190Z,11.99
2022-10-02T00:17:13.161Z,12.02
2022-10-02T00:18:13.135Z,12.04
2022-10-02T00:19:13.126Z,12.05
2022-10-02T00:20:13.141Z,12.09
2022-10-02T00:21:13.123Z,12.12
2022-10-02T00:22:13.092Z,12.13
2022-10-02T00:23:13.080Z,12.17
2022-10-02T00:24:13.080Z,12.19
2022-10-02T00:25:13.057Z,12.20
2022-10-02T00:26:13.049Z,12.23
2022-10-02T00:27:13.048Z,12.23
2022-10-02T00:28:13.087Z,12.24
2022-10-02T00:29:13.022Z,12.27
2022-10-02T00:30:13.020Z,12.28
2022-10-02T00:31:12.998Z,12.27
2022-10-02T00:32:12.999Z,12.24
2022-10-02T00:33:12.976Z,12.27
2022-10-02T00:34:15.310Z,12.27
2022-10-02T00:35:12.954Z,12.28
2022-10-02T00:36:12.969Z,12.29
2022-10-02T00:37:12.947Z,12.31
2022-10-02T00:38:12.925Z,12.31
2022-10-02T00:39:12.925Z,12.32
2022-10-02T00:40:12.910Z,12.34
2022-10-02T00:41:12.891Z,12.37
2022-10-02T00:42:12.898Z,12.37
2022-10-02T00:43:12.872Z,12.39
2022-10-02T00:44:12.880Z,12.38
2022-10-02T00:45:12.852Z,12.39
2022-10-02T00:46:12.878Z,12.39
2022-10-02T00:47:12.861Z,12.39
2022-10-02T00:48:12.827Z,12.39
2022-10-02T00:49:12.813Z,12.39
2022-10-02T00:50:12.805Z,12.39
2022-10-02T00:51:12.791Z,12.42
2022-10-02T00:52:12.820Z,12.42
2022-10-02T00:53:12.769Z,12.42
2022-10-02T00:54:12.767Z,12.42
2022-10-02T00:55:12.748Z,12.42
2022-10-02T00:56:12.761Z,12.42
2022-10-02T00:57:12.743Z,12.42
2022-10-02T00:58:12.723Z,12.41
2022-10-02T00:59:12.710Z,12.41
2022-10-02T01:00:12.699Z,12.39
2022-10-02T01:01:12.748Z,12.41
2022-10-02T01:02:12.777Z,12.39
2022-10-02T01:03:12.669Z,12.39
2022-10-02T01:04:12.660Z,12.38
2022-10-02T01:05:12.647Z,12.41
2022-10-02T01:06:12.643Z,12.39
2022-10-02T01:07:12.646Z,12.41
2022-10-02T01:08:12.637Z,12.39
2022-10-02T01:09:12.606Z,12.42
2022-10-02T01:10:12.598Z,12.42
2022-10-02T01:11:12.588Z,12.41
2022-10-02T01:12:12.589Z,12.45
2022-10-02T01:13:12.564Z,12.42
2022-10-02T01:14:12.560Z,12.45
2022-10-02T01:15:12.558Z,12.42
2022-10-02T01:16:12.577Z,12.45
2022-10-02T01:17:12.541Z,12.42
2022-10-02T01:18:12.515Z,12.42
2022-10-02T01:19:12.504Z,12.42
2022-10-02T01:20:12.492Z,12.42
2022-10-02T01:21:12.490Z,12.45
2022-10-02T01:22:12.492Z,12.45
2022-10-02T01:23:12.471Z,12.46
2022-10-02T01:24:12.473Z,12.46
2022-10-02T01:25:12.447Z,12.47
2022-10-02T01:26:12.431Z,12.47
2022-10-02T01:27:12.423Z,12.47
2022-10-02T01:28:12.520Z,12.49
2022-10-02T01:29:12.407Z,12.50
2022-10-02T01:30:12.396Z,12.49
2022-10-02T01:31:13.384Z,12.52
2022-10-02T01:32:12.371Z,12.52
2022-10-02T01:33:12.373Z,12.53
2022-10-02T01:34:12.352Z,12.54
2022-10-02T01:35:12.338Z,12.54
2022-10-02T01:36:12.393Z,12.57
2022-10-02T01:37:12.319Z,12.56
2022-10-02T01:38:12.352Z,12.56
2022-10-02T01:39:12.296Z,12.57
2022-10-02T01:40:12.311Z,12.59
2022-10-02T01:41:12.286Z,12.57
2022-10-02T01:42:12.269Z,12.59
2022-10-02T01:43:12.274Z,12.60
2022-10-02T01:44:12.249Z,12.62
2022-10-02T01:45:12.236Z,12.62
2022-10-02T01:46:12.292Z,12.60
2022-10-02T01:47:12.215Z,12.60
2022-10-02T01:48:12.246Z,12.65
2022-10-02T01:49:12.198Z,12.67
2022-10-02T01:50:12.186Z,12.65
2022-10-02T01:51:12.176Z,12.65
2022-10-02T01:52:12.793Z,12.65
2022-10-02T01:53:12.166Z,12.67
2022-10-02T01:54:12.150Z,12.67
2022-10-02T01:55:12.135Z,12.67
2022-10-02T01:56:12.146Z,12.68
2022-10-02T01:57:12.114Z,12.68
2022-10-02T01:58:12.116Z,12.70
2022-10-02T01:59:12.096Z,12.70
2022-10-02T02:00:12.086Z,12.70
2022-10-02T02:01:12.108Z,12.71
2022-10-02T02:02:12.137Z,12.71
2022-10-02T02:03:12.068Z,12.72
2022-10-02T02:04:12.048Z,12.72
2022-10-02T02:05:12.030Z,12.71
2022-10-02T02:06:12.029Z,12.72
2022-10-02T02:07:12.015Z,12.72
2022-10-02T02:08:12.022Z,12.72
2022-10-02T02:09:12.797Z,12.70
2022-10-02T02:10:11.981Z,12.71
2022-10-02T02:11:12.017Z,12.74
2022-10-02T02:12:11.987Z,12.72
2022-10-02T02:13:11.967Z,12.72
2022-10-02T02:14:11.939Z,12.72
2022-10-02T02:15:11.930Z,12.74
2022-10-02T02:16:11.965Z,12.72
2022-10-02T02:17:11.911Z,12.74
2022-10-02T02:18:11.917Z,12.74
2022-10-02T02:19:12.013Z,12.74
2022-10-02T02:20:11.878Z,12.77
2022-10-02T02:21:11.871Z,12.77
2022-10-02T02:22:11.857Z,12.77
2022-10-02T02:23:11.865Z,12.77
2022-10-02T02:24:11.852Z,12.78
2022-10-02T02:25:11.832Z,12.78
2022-10-02T02:26:11.817Z,12.78
2022-10-02T02:27:11.809Z,12.79
2022-10-02T02:28:11.904Z,12.82
2022-10-02T02:29:11.798Z,12.78
2022-10-02T02:30:11.777Z,12.78
2022-10-02T02:31:11.845Z,12.77
2022-10-02T02:32:11.755Z,12.79
2022-10-02T02:33:11.761Z,12.78
2022-10-02T02:34:11.737Z,12.75
2022-10-02T02:35:11.728Z,12.75
2022-10-02T02:36:11.719Z,12.74
2022-10-02T02:37:11.711Z,12.75
2022-10-02T02:38:11.709Z,12.74
2022-10-02T02:39:11.687Z,12.74
2022-10-02T02:40:11.679Z,12.72
2022-10-02T02:41:11.667Z,12.74
2022-10-02T02:42:14.556Z,12.74
2022-10-02T02:43:12.657Z,12.74
2022-10-02T02:44:11.667Z,12.74
2022-10-02T02:45:11.625Z,12.74
2022-10-02T02:46:11.690Z,12.74
2022-10-02T02:47:11.616Z,12.74
2022-10-02T02:48:11.608Z,12.72
2022-10-02T02:49:11.585Z,12.72
2022-10-02T02:50:11.574Z,12.72
2022-10-02T02:51:11.560Z,12.72
2022-10-02T02:52:11.553Z,12.71
2022-10-02T02:53:11.541Z,12.72
2022-10-02T02:54:11.545Z,12.71
2022-10-02T02:55:11.528Z,12.70
2022-10-02T02:56:11.514Z,12.68
2022-10-02T02:57:11.502Z,12.70
2022-10-02T02:58:11.489Z,12.68
2022-10-02T02:59:11.503Z,12.68
2022-10-02T03:00:11.498Z,12.67
2022-10-02T03:01:11.481Z,12.67
2022-10-02T03:02:11.500Z,12.67
2022-10-02T03:03:11.438Z,12.64
2022-10-02T03:04:11.455Z,12.64
2022-10-02T03:05:11.420Z,12.64
2022-10-02T03:06:11.408Z,12.62
2022-10-02T03:07:11.406Z,12.62
2022-10-02T03:08:11.387Z,12.62
2022-10-02T03:09:11.392Z,12.62
2022-10-02T03:10:11.381Z,12.64
2022-10-02T03:11:11.362Z,12.62
2022-10-02T03:12:11.349Z,12.59
2022-10-02T03:13:11.336Z,12.60
2022-10-02T03:14:11.341Z,12.64
2022-10-02T03:15:11.321Z,12.67
2022-10-02T03:16:11.441Z,12.67
2022-10-02T03:17:11.295Z,12.68
2022-10-02T03:18:11.286Z,12.70
2022-10-02T03:19:11.292Z,12.71
2022-10-02T03:20:11.264Z,12.72
2022-10-02T03:21:11.266Z,12.74
2022-10-02T03:22:11.248Z,12.74
2022-10-02T03:23:11.232Z,12.75
2022-10-02T03:24:11.239Z,12.74
2022-10-02T03:25:11.214Z,12.77
2022-10-02T03:26:11.211Z,12.77
2022-10-02T03:27:11.192Z,12.78
2022-10-02T03:28:11.281Z,12.77
2022-10-02T03:29:11.235Z,12.77
2022-10-02T03:30:11.161Z,12.78
2022-10-02T03:31:11.204Z,12.77
2022-10-02T03:32:11.161Z,12.77
2022-10-02T03:33:11.143Z,12.77
2022-10-02T03:34:11.136Z,12.75
2022-10-02T03:35:11.116Z,12.75
2022-10-02T03:36:11.098Z,12.74
2022-10-02T03:37:11.089Z,12.72
2022-10-02T03:38:11.089Z,12.72
2022-10-02T03:39:24.822Z,12.74
2022-10-02T03:40:12.065Z,12.75
2022-10-02T03:41:11.051Z,12.72
2022-10-02T03:42:11.040Z,12.74
2022-10-02T03:43:11.043Z,12.75
2022-10-02T03:44:11.020Z,12.75
2022-10-02T03:45:19.516Z,12.77
2022-10-02T03:46:12.052Z,12.75
2022-10-02T03:47:10.989Z,12.75
2022-10-02T03:48:11.009Z,12.78
2022-10-02T03:49:10.966Z,12.78
2022-10-02T03:50:10.960Z,12.78
2022-10-02T03:51:10.971Z,12.79
2022-10-02T03:52:10.938Z,12.82
2022-10-02T03:53:10.950Z,12.82
2022-10-02T03:54:10.919Z,12.82
2022-10-02T03:55:10.910Z,12.85
2022-10-02T03:56:10.912Z,12.83
2022-10-02T03:57:10.885Z,12.83
2022-10-02T03:58:10.885Z,12.85
2022-10-02T03:59:10.867Z,12.83
2022-10-02T04:00:10.852Z,12.85
2022-10-02T04:01:10.847Z,12.86
2022-10-02T04:02:10.992Z,12.85
2022-10-02T04:03:10.909Z,12.83
2022-10-02T04:04:10.834Z,12.85
2022-10-02T04:05:10.805Z,12.85
2022-10-02T04:06:10.790Z,12.82
2022-10-02T04:07:10.783Z,12.83
2022-10-02T04:08:10.785Z,12.86
2022-10-02T04:09:10.762Z,12.86
2022-10-02T04:10:10.751Z,12.86
2022-10-02T04:11:10.856Z,12.86
2022-10-02T04:12:10.728Z,12.87
2022-10-02T04:13:10.735Z,12.86
2022-10-02T04:14:10.710Z,12.86
2022-10-02T04:15:10.700Z,12.85
2022-10-02T04:16:10.760Z,12.83
2022-10-02T04:17:10.678Z,12.83
2022-10-02T04:18:10.667Z,12.82
2022-10-02T04:19:10.676Z,12.82
2022-10-02T04:20:10.679Z,12.85
2022-10-02T04:21:10.647Z,12.82
2022-10-02T04:22:10.644Z,12.83
2022-10-02T04:23:10.618Z,12.83
2022-10-02T04:24:10.633Z,12.85
2022-10-02T04:25:10.602Z,12.85
2022-10-02T04:26:10.597Z,12.85
2022-10-02T04:27:10.578Z,12.83
2022-10-02T04:28:10.615Z,12.85
2022-10-02T04:29:10.572Z,12.83
2022-10-02T04:30:10.548Z,12.82
2022-10-02T04:31:10.574Z,12.82
2022-10-02T04:32:10.525Z,12.83
2022-10-02T04:33:10.516Z,12.83
2022-10-02T04:34:10.522Z,12.83
2022-10-02T04:35:10.506Z,12.83
2022-10-02T04:36:10.505Z,12.83
2022-10-02T04:37:10.476Z,12.85
2022-10-02T04:38:10.467Z,12.85
2022-10-02T04:39:10.470Z,12.85
2022-10-02T04:40:10.448Z,12.87
2022-10-02T04:41:10.446Z,12.87
2022-10-02T04:42:10.448Z,12.85
2022-10-02T04:43:10.424Z,12.86
2022-10-02T04:44:10.417Z,12.85
2022-10-02T04:45:10.394Z,12.85
2022-10-02T04:46:10.442Z,12.83
2022-10-02T04:47:10.373Z,12.83
2022-10-02T04:48:10.362Z,12.82
2022-10-02T04:49:10.373Z,12.82
2022-10-02T04:50:10.347Z,12.85
2022-10-02T04:51:10.334Z,12.83
2022-10-02T04:52:10.344Z,12.85
2022-10-02T04:53:10.329Z,12.86
2022-10-02T04:54:10.320Z,12.87
2022-10-02T04:55:10.297Z,12.87
2022-10-02T04:56:10.378Z,12.87
2022-10-02T04:57:10.273Z,12.87
2022-10-02T04:58:10.261Z,12.89
2022-10-02T04:59:10.264Z,12.89
2022-10-02T05:00:10.239Z,12.89
2022-10-02T05:01:10.313Z,12.87
2022-10-02T05:02:10.267Z,12.89
2022-10-02T05:03:10.207Z,12.86
2022-10-02T05:04:10.211Z,12.87
2022-10-02T05:05:10.188Z,12.86
2022-10-02T05:06:10.181Z,12.85
2022-10-02T05:07:10.173Z,12.86
2022-10-02T05:08:10.184Z,12.85
2022-10-02T05:09:10.163Z,12.86
2022-10-02T05:10:10.851Z,12.86
2022-10-02T05:11:10.127Z,12.87
2022-10-02T05:12:10.118Z,12.89
2022-10-02T05:13:10.119Z,12.90
2022-10-02T05:14:10.105Z,12.90
2022-10-02T05:15:10.095Z,12.90
2022-10-02T05:16:10.158Z,12.90
2022-10-02T05:17:10.071Z,12.90
2022-10-02T05:18:12.519Z,12.93
2022-10-02T05:19:10.057Z,12.95
2022-10-02T05:20:10.034Z,12.93
2022-10-02T05:21:10.027Z,12.95
2022-10-02T05:22:10.013Z,12.95
2022-10-02T05:23:10.003Z,12.95
2022-10-02T05:24:10.025Z,12.93
2022-10-02T05:25:10.859Z,12.92
2022-10-02T05:26:14.231Z,12.92
2022-10-02T05:27:09.965Z,12.92
2022-10-02T05:28:10.000Z,12.92
2022-10-02T05:29:09.955Z,12.93
2022-10-02T05:30:09.930Z,12.93
2022-10-02T05:31:09.965Z,12.93
2022-10-02T05:32:09.910Z,12.96
2022-10-02T05:33:09.903Z,12.96
2022-10-02T05:34:09.909Z,12.96
2022-10-02T05:35:10.859Z,12.95
2022-10-02T05:36:09.870Z,12.96
2022-10-02T05:37:09.865Z,12.96
2022-10-02T05:38:09.849Z,12.95
2022-10-02T05:39:09.895Z,12.95
2022-10-02T05:40:09.912Z,12.95
2022-10-02T05:41:09.820Z,12.96
2022-10-02T05:42:09.812Z,12.96
2022-10-02T05:43:09.800Z,12.93
2022-10-02T05:44:09.802Z,12.95
2022-10-02T05:45:09.778Z,12.96
2022-10-02T05:46:09.768Z,12.95
2022-10-02T05:47:09.810Z,12.95
2022-10-02T05:48:09.748Z,12.92
2022-10-02T05:49:09.749Z,12.93
2022-10-02T05:50:09.730Z,12.92
2022-10-02T05:51:09.727Z,12.92
2022-10-02T05:52:10.382Z,12.92
2022-10-02T05:53:09.698Z,12.90
2022-10-02T05:54:09.808Z,12.90
2022-10-02T05:55:09.675Z,12.89
2022-10-02T05:56:09.689Z,12.90
2022-10-02T05:57:09.654Z,12.89
2022-10-02T05:58:09.643Z,12.85
2022-10-02T05:59:09.635Z,12.85
2022-10-02T06:00:09.639Z,12.83
2022-10-02T06:01:09.685Z,12.82
2022-10-02T06:02:09.663Z,12.79
2022-10-02T06:03:09.595Z,12.78
2022-10-02T06:04:09.580Z,12.78
2022-10-02T06:05:09.586Z,12.77
2022-10-02T06:06:09.563Z,12.75
2022-10-02T06:07:09.554Z,12.74
2022-10-02T06:08:09.542Z,12.74
2022-10-02T06:09:09.537Z,12.74
2022-10-02T06:10:09.538Z,12.72
2022-10-02T06:11:09.659Z,12.72
2022-10-02T06:12:09.527Z,12.71
2022-10-02T06:13:09.499Z,12.71
2022-10-02T06:14:10.385Z,12.70
2022-10-02T06:15:09.534Z,12.70
2022-10-02T06:16:09.542Z,12.68
2022-10-02T06:17:09.462Z,12.68
2022-10-02T06:18:09.443Z,12.67
2022-10-02T06:19:09.449Z,12.68
2022-10-02T06:20:09.418Z,12.67
2022-10-02T06:21:09.409Z,12.67
2022-10-02T06:22:09.409Z,12.67
2022-10-02T06:23:09.402Z,12.68
2022-10-02T06:24:09.394Z,12.65
2022-10-02T06:25:09.380Z,12.67
2022-10-02T06:26:09.359Z,12.65
2022-10-02T06:27:09.348Z,12.67
2022-10-02T06:28:09.474Z,12.67
2022-10-02T06:29:09.336Z,12.65
2022-10-02T06:30:09.319Z,12.67
2022-10-02T06:31:09.347Z,12.65
2022-10-02T06:32:09.299Z,12.65
2022-10-02T06:33:09.282Z,12.65
2022-10-02T06:34:09.288Z,12.67
2022-10-02T06:35:09.265Z,12.67
2022-10-02T06:36:09.255Z,12.67
2022-10-02T06:37:09.255Z,12.68
2022-10-02T06:38:09.235Z,12.68
2022-10-02T06:39:09.243Z,12.68
2022-10-02T06:40:09.214Z,12.70
2022-10-02T06:41:09.209Z,12.70
2022-10-02T06:42:09.192Z,12.70
2022-10-02T06:43:09.181Z,12.70
2022-10-02T06:44:09.218Z,12.70
2022-10-02T06:45:09.170Z,12.71
2022-10-02T06:46:09.227Z,12.70
2022-10-02T06:47:09.165Z,12.70
2022-10-02T06:48:09.157Z,12.72
2022-10-02T06:49:09.137Z,12.72
2022-10-02T06:50:09.111Z,12.72
2022-10-02T06:51:09.098Z,12.72
2022-10-02T06:52:09.097Z,12.72
2022-10-02T06:53:09.080Z,12.72
2022-10-02T06:54:09.085Z,12.72
2022-10-02T06:55:09.076Z,12.74
2022-10-02T06:56:09.049Z,12.71
2022-10-02T06:57:09.052Z,12.72
2022-10-02T06:58:09.035Z,12.71
2022-10-02T06:59:09.029Z,12.72
2022-10-02T07:00:09.024Z,12.75
2022-10-02T07:01:09.093Z,12.75
2022-10-02T07:02:09.018Z,12.75
2022-10-02T07:03:09.000Z,12.75
2022-10-02T07:04:08.982Z,12.77
2022-10-02T07:05:08.954Z,12.77
2022-10-02T07:06:08.948Z,12.78
2022-10-02T07:07:08.938Z,12.77
2022-10-02T07:08:08.935Z,12.78
2022-10-02T07:09:08.933Z,12.78
2022-10-02T07:10:08.909Z,12.79
2022-10-02T07:11:08.921Z,12.79
2022-10-02T07:12:08.889Z,12.79
2022-10-02T07:13:08.873Z,12.82
2022-10-02T07:14:08.880Z,12.83
2022-10-02T07:15:08.855Z,12.79
2022-10-02T07:16:09.049Z,12.79
2022-10-02T07:17:08.830Z,12.78
2022-10-02T07:18:08.824Z,12.77
2022-10-02T07:19:08.830Z,12.78
2022-10-02T07:20:08.806Z,12.77
2022-10-02T07:21:08.796Z,12.77
2022-10-02T07:22:32.507Z,12.77
2022-10-02T07:23:09.767Z,12.75
2022-10-02T07:24:08.764Z,12.75
2022-10-02T07:25:08.777Z,12.77
2022-10-02T07:26:08.744Z,12.79
2022-10-02T07:27:08.736Z,12.78
2022-10-02T07:28:08.832Z,12.77
2022-10-02T07:29:08.707Z,12.75
2022-10-02T07:30:08.712Z,12.77
2022-10-02T07:31:08.737Z,12.75
2022-10-02T07:32:08.700Z,12.75
2022-10-02T07:33:08.670Z,12.75
2022-10-02T07:34:08.680Z,12.77
2022-10-02T07:35:08.719Z,12.75
2022-10-02T07:36:08.643Z,12.75
2022-10-02T07:37:08.628Z,12.72
2022-10-02T07:38:08.627Z,12.72
2022-10-02T07:39:08.608Z,12.72
2022-10-02T07:40:08.615Z,12.74
2022-10-02T07:41:08.590Z,12.71
2022-10-02T07:42:08.576Z,12.72
2022-10-02T07:43:08.565Z,12.72
2022-10-02T07:44:08.555Z,12.70
2022-10-02T07:45:08.558Z,12.70
2022-10-02T07:46:09.743Z,12.70
2022-10-02T07:47:08.527Z,12.71
2022-10-02T07:48:08.538Z,12.70
2022-10-02T07:49:08.503Z,12.68
2022-10-02T07:50:08.508Z,12.70
2022-10-02T07:51:08.485Z,12.68
2022-10-02T07:52:08.479Z,12.70
2022-10-02T07:53:08.463Z,12.68
2022-10-02T07:54:08.451Z,12.68
2022-10-02T07:55:08.473Z,12.67
2022-10-02T07:56:08.433Z,12.68
2022-10-02T07:57:10.037Z,12.68
2022-10-02T07:58:08.411Z,12.68
2022-10-02T07:59:08.400Z,12.67
2022-10-02T08:00:08.405Z,12.68
2022-10-02T08:01:08.378Z,12.71
2022-10-02T08:02:08.456Z,12.70
2022-10-02T08:03:08.444Z,12.71
2022-10-02T08:04:08.372Z,12.74
2022-10-02T08:05:08.356Z,12.72
2022-10-02T08:06:08.329Z,12.72
2022-10-02T08:07:08.317Z,12.72
2022-10-02T08:08:08.308Z,12.74
2022-10-02T08:09:08.296Z,12.74
2022-10-02T08:10:08.313Z,12.74
2022-10-02T08:11:08.275Z,12.74
2022-10-02T08:12:08.266Z,12.74
2022-10-02T08:13:08.264Z,12.75
2022-10-02T08:14:08.255Z,12.75
2022-10-02T08:15:08.256Z,12.74
2022-10-02T08:16:08.317Z,12.77
2022-10-02T08:17:08.216Z,12.77
2022-10-02T08:18:30.172Z,12.78
2022-10-02T08:19:09.194Z,12.79
2022-10-02T08:20:08.236Z,12.83
2022-10-02T08:21:08.176Z,12.85
2022-10-02T08:22:08.167Z,12.83
2022-10-02T08:23:08.155Z,12.85
2022-10-02T08:24:08.145Z,12.86
2022-10-02T08:25:08.166Z,12.83
2022-10-02T08:26:08.125Z,12.85
2022-10-02T08:27:08.123Z,12.83
2022-10-02T08:28:08.165Z,12.82
2022-10-02T08:29:08.090Z,12.83
2022-10-02T08:30:08.096Z,12.83
2022-10-02T08:31:08.271Z,12.83
2022-10-02T08:32:08.060Z,12.83
2022-10-02T08:33:08.053Z,12.85
2022-10-02T08:34:08.042Z,12.86
2022-10-02T08:35:08.046Z,12.86
2022-10-02T08:36:08.041Z,12.86
2022-10-02T08:37:08.013Z,12.85
2022-10-02T08:38:08.010Z,12.85
2022-10-02T08:39:07.992Z,12.87
2022-10-02T08:40:07.995Z,12.86
2022-10-02T08:41:07.977Z,12.90
2022-10-02T08:42:07.960Z,12.92
2022-10-02T08:43:07.948Z,12.95
2022-10-02T08:44:07.946Z,12.97
2022-10-02T08:45:07.955Z,13.01
2022-10-02T08:46:07.948Z,13.03
2022-10-02T08:47:07.906Z,13.00
2022-10-02T08:48:07.903Z,13.00
2022-10-02T08:49:07.888Z,13.04
2022-10-02T08:50:07.892Z,13.04
2022-10-02T08:51:07.864Z,13.03
2022-10-02T08:52:07.890Z,13.01
2022-10-02T08:53:07.867Z,13.01
2022-10-02T08:54:07.836Z,13.01
2022-10-02T08:55:07.851Z,13.01
2022-10-02T08:56:07.880Z,13.01
2022-10-02T08:57:07.818Z,13.00
2022-10-02T08:58:07.805Z,12.96
2022-10-02T08:59:07.797Z,12.97
2022-10-02T09:00:07.802Z,13.00
2022-10-02T09:01:07.801Z,13.00
2022-10-02T09:02:07.897Z,13.01
2022-10-02T09:03:07.761Z,13.00
2022-10-02T09:04:07.745Z,12.96
2022-10-02T09:05:07.745Z,13.00
2022-10-02T09:06:07.757Z,12.96
2022-10-02T09:07:07.712Z,12.96
2022-10-02T09:08:07.714Z,12.97
2022-10-02T09:09:08.385Z,12.97
2022-10-02T09:10:07.755Z,12.97
2022-10-02T09:11:07.700Z,13.01
2022-10-02T09:12:07.674Z,13.04
2022-10-02T09:13:07.648Z,13.04
2022-10-02T09:14:07.640Z,13.05
2022-10-02T09:15:07.695Z,13.07
2022-10-02T09:16:07.660Z,13.08
2022-10-02T09:17:07.608Z,13.08
2022-10-02T09:18:07.662Z,13.07
2022-10-02T09:19:07.594Z,13.11
2022-10-02T09:20:07.593Z,13.08
2022-10-02T09:21:11.457Z,13.07
2022-10-02T09:22:07.566Z,13.08
2022-10-02T09:23:07.539Z,13.08
2022-10-02T09:24:07.622Z,13.07
2022-10-02T09:25:07.534Z,13.08
2022-10-02T09:26:07.520Z,13.11
2022-10-02T09:27:07.499Z,13.12
2022-10-02T09:28:07.569Z,13.15
2022-10-02T09:29:07.491Z,13.14
2022-10-02T09:30:07.487Z,13.15
2022-10-02T09:31:07.461Z,13.17
2022-10-02T09:32:07.445Z,13.19
2022-10-02T09:33:07.443Z,13.17
2022-10-02T09:34:07.433Z,13.15
2022-10-02T09:35:07.438Z,13.14
2022-10-02T09:36:07.410Z,13.12
2022-10-02T09:37:07.400Z,13.12
2022-10-02T09:38:07.388Z,13.14
2022-10-02T09:39:07.374Z,13.12
2022-10-02T09:40:07.407Z,13.15
2022-10-02T09:41:07.367Z,13.14
2022-10-02T09:42:07.353Z,13.12
2022-10-02T09:43:07.344Z,13.11
2022-10-02T09:44:07.338Z,13.11
2022-10-02T09:45:07.324Z,13.12
2022-10-02T09:46:07.416Z,13.12
2022-10-02T09:47:07.294Z,13.14
2022-10-02T09:48:07.284Z,13.17
2022-10-02T09:49:07.273Z,13.19
2022-10-02T09:50:07.277Z,13.20
2022-10-02T09:51:07.251Z,13.20
2022-10-02T09:52:07.250Z,13.20
2022-10-02T09:53:07.231Z,13.23
2022-10-02T09:54:07.222Z,13.20
2022-10-02T09:55:07.225Z,13.22
2022-10-02T09:56:07.224Z,13.25
2022-10-02T09:57:07.193Z,13.26
2022-10-02T09:58:07.201Z,13.32
2022-10-02T09:59:07.179Z,13.30
2022-10-02T10:00:07.192Z,13.32
2022-10-02T10:01:07.238Z,13.32
2022-10-02T10:02:07.224Z,13.29
2022-10-02T10:03:07.135Z,13.29
2022-10-02T10:04:07.127Z,13.30
2022-10-02T10:05:07.312Z,13.32
2022-10-02T10:06:07.105Z,13.32
2022-10-02T10:07:07.095Z,13.38
2022-10-02T10:08:07.154Z,13.33
2022-10-02T10:09:07.073Z,13.41
2022-10-02T10:10:07.063Z,13.44
2022-10-02T10:11:07.057Z,13.49
2022-10-02T10:12:07.058Z,13.57
2022-10-02T10:13:07.041Z,13.64
2022-10-02T10:14:07.023Z,13.67
2022-10-02T10:15:09.159Z,13.71
2022-10-02T10:16:07.040Z,13.77
2022-10-02T10:17:07.006Z,13.79
2022-10-02T10:18:07.005Z,13.81
2022-10-02T10:19:06.971Z,13.82
2022-10-02T10:20:06.955Z,13.85
2022-10-02T10:21:06.946Z,13.89
2022-10-02T10:22:06.948Z,13.89
2022-10-02T10:23:06.939Z,13.87
2022-10-02T10:24:06.918Z,13.88
2022-10-02T10:25:06.905Z,13.96
2022-10-02T10:26:06.896Z,14.00
2022-10-02T10:27:08.211Z,13.96
2022-10-02T10:28:06.959Z,13.87
2022-10-02T10:29:06.862Z,13.85
2022-10-02T10:30:06.855Z,13.85
2022-10-02T10:31:06.838Z,13.87
2022-10-02T10:32:06.912Z,13.91
2022-10-02T10:33:06.835Z,13.95
2022-10-02T10:34:06.809Z,13.96
2022-10-02T10:35:06.801Z,13.97
2022-10-02T10:36:06.787Z,13.89
2022-10-02T10:37:06.776Z,13.89
2022-10-02T10:38:06.787Z,13.89
2022-10-02T10:39:06.762Z,13.87
2022-10-02T10:40:06.749Z,13.85
2022-10-02T10:41:06.739Z,13.87
2022-10-02T10:42:06.737Z,13.85
2022-10-02T10:43:08.198Z,13.82
2022-10-02T10:44:06.748Z,13.79
2022-10-02T10:45:06.696Z,13.78
2022-10-02T10:46:06.713Z,13.78
2022-10-02T10:47:06.676Z,13.75
2022-10-02T10:48:06.678Z,13.71
2022-10-02T10:49:06.668Z,13.70
2022-10-02T10:50:06.643Z,13.73
2022-10-02T10:51:06.657Z,13.73
2022-10-02T10:52:06.622Z,13.70
2022-10-02T10:53:06.616Z,13.66
2022-10-02T10:54:06.614Z,13.66
2022-10-02T10:55:06.591Z,13.67
2022-10-02T10:56:06.581Z,13.71
2022-10-02T10:57:06.572Z,13.75
2022-10-02T10:58:06.564Z,13.71
2022-10-02T10:59:06.574Z,13.73
2022-10-02T11:00:06.563Z,13.71
2022-10-02T11:01:06.595Z,13.70
2022-10-02T11:02:06.577Z,13.70
2022-10-02T11:03:06.513Z,13.70
2022-10-02T11:04:06.606Z,13.69
2022-10-02T11:05:06.539Z,13.66
2022-10-02T11:06:06.501Z,13.66
2022-10-02T11:07:06.492Z,13.60
2022-10-02T11:08:06.498Z,13.59
2022-10-02T11:09:06.475Z,13.59
2022-10-02T11:10:06.447Z,13.55
2022-10-02T11:11:06.469Z,13.55
2022-10-02T11:12:09.683Z,13.54
2022-10-02T11:13:06.433Z,13.55
2022-10-02T11:14:06.420Z,13.59
2022-10-02T11:15:06.391Z,13.62
2022-10-02T11:16:06.439Z,13.62
2022-10-02T11:17:06.372Z,13.60
2022-10-02T11:18:06.364Z,13.63
2022-10-02T11:19:06.363Z,13.64
2022-10-02T11:20:06.336Z,13.60
2022-10-02T11:21:06.326Z,13.59
2022-10-02T11:22:06.315Z,13.60
2022-10-02T11:23:06.307Z,13.60
2022-10-02T11:24:06.308Z,13.59
2022-10-02T11:25:11.948Z,13.64
2022-10-02T11:26:07.290Z,13.69
2022-10-02T11:27:06.277Z,13.75
2022-10-02T11:28:06.370Z,13.75
2022-10-02T11:29:06.255Z,13.77
2022-10-02T11:30:07.275Z,13.79
2022-10-02T11:31:06.225Z,13.82
2022-10-02T11:32:06.361Z,13.84
2022-10-02T11:33:06.201Z,13.84
2022-10-02T11:34:06.187Z,13.88
2022-10-02T11:35:06.255Z,13.91
2022-10-02T11:36:06.170Z,13.99
2022-10-02T11:37:06.157Z,13.99
2022-10-02T11:38:06.201Z,13.99
2022-10-02T11:39:06.149Z,14.03
2022-10-02T11:40:06.148Z,14.06
2022-10-02T11:41:06.115Z,14.04
2022-10-02T11:42:06.110Z,14.03
2022-10-02T11:43:06.095Z,14.03
2022-10-02T11:44:06.086Z,14.03
2022-10-02T11:45:06.093Z,14.03
2022-10-02T11:46:06.123Z,14.02
2022-10-02T11:47:06.054Z,14.00
2022-10-02T11:48:06.061Z,14.00
2022-10-02T11:49:06.035Z,14.00
2022-10-02T11:50:06.070Z,14.00
2022-10-02T11:51:06.013Z,14.00
2022-10-02T11:52:06.012Z,13.99
2022-10-02T11:53:05.995Z,13.95
2022-10-02T11:54:05.978Z,13.89
2022-10-02T11:55:05.990Z,13.89
2022-10-02T11:56:05.956Z,13.88
2022-10-02T11:57:05.948Z,13.88
2022-10-02T11:58:05.938Z,13.89
2022-10-02T11:59:06.013Z,13.91
2022-10-02T12:00:05.922Z,13.91
2022-10-02T12:01:05.961Z,13.95
2022-10-02T12:02:06.021Z,13.96
2022-10-02T12:03:06.003Z,13.97
2022-10-02T12:04:05.908Z,13.97
2022-10-02T12:05:05.898Z,13.99
2022-10-02T12:06:05.853Z,14.02
2022-10-02T12:07:05.842Z,13.96
2022-10-02T12:08:05.831Z,13.95
2022-10-02T12:09:05.826Z,13.96
2022-10-02T12:10:05.828Z,14.00
2022-10-02T12:11:05.801Z,14.02
2022-10-02T12:12:05.799Z,14.02
2022-10-02T12:13:05.800Z,14.02
2022-10-02T12:14:05.770Z,14.03
2022-10-02T12:15:05.774Z,14.06
2022-10-02T12:16:05.834Z,14.03
2022-10-02T12:17:05.738Z,14.02
2022-10-02T12:18:05.734Z,14.00
2022-10-02T12:19:05.719Z,14.03
2022-10-02T12:20:05.750Z,14.03
2022-10-02T12:21:05.698Z,14.04
2022-10-02T12:22:05.685Z,14.06
2022-10-02T12:23:05.681Z,14.04
2022-10-02T12:24:05.664Z,14.09
2022-10-02T12:25:05.672Z,14.07
2022-10-02T12:26:05.643Z,14.07
2022-10-02T12:27:05.634Z,14.07
2022-10-02T12:28:05.668Z,14.09
2022-10-02T12:29:05.613Z,14.12
2022-10-02T12:30:05.620Z,14.14
2022-10-02T12:31:05.592Z,14.14
2022-10-02T12:32:05.620Z,14.17
2022-10-02T12:33:05.680Z,14.21
2022-10-02T12:34:05.561Z,14.18
2022-10-02T12:35:05.569Z,14.18
2022-10-02T12:36:05.564Z,14.22
2022-10-02T12:37:05.534Z,14.24
2022-10-02T12:38:05.519Z,14.29
2022-10-02T12:39:05.507Z,14.35
2022-10-02T12:40:05.523Z,14.29
2022-10-02T12:41:05.487Z,14.27
2022-10-02T12:42:05.488Z,14.24
2022-10-02T12:43:05.467Z,14.24
2022-10-02T12:44:05.459Z,14.21
2022-10-02T12:45:10.743Z,14.18
2022-10-02T12:46:06.539Z,14.17
2022-10-02T12:47:05.425Z,14.18
2022-10-02T12:48:05.413Z,14.18
2022-10-02T12:49:05.405Z,14.15
2022-10-02T12:50:05.405Z,14.15
2022-10-02T12:51:05.727Z,14.17
2022-10-02T12:52:05.393Z,14.17